sensor_id;sensor_type;location;lat;lon;timestamp;P1;durP1;ratioP1;P2;durP2;ratioP2
37445;SDS011;23307;51.136;14.942;2023-04-06T00:00:22;9.20;;;6.27;;
37445;SDS011;23307;51.136;14.942;2023-04-06T00:02:48;9.20;;;6.77;;
37445;SDS011;23307;51.136;14.942;2023-04-06T00:05:13;8.43;;;6.73;;
37445;SDS011;23307;51.136;14.942;2023-04-06T00:07:39;9.00;;;6.63;;
37445;SDS011;23307;51.136;14.942;2023-04-06T00:10:05;8.43;;;6.30;;
37445;SDS011;23307;51.136;14.942;2023-04-06T00:12:31;9.07;;;6.60;;
37445;SDS011;23307;51.136;14.942;2023-04-06T00:14:56;8.47;;;6.70;;
37445;SDS011;23307;51.136;14.942;2023-04-06T00:17:22;8.50;;;6.70;;
37445;SDS011;23307;51.136;14.942;2023-04-06T00:19:47;8.80;;;6.47;;
37445;SDS011;23307;51.136;14.942;2023-04-06T00:22:13;8.97;;;6.80;;
37445;SDS011;23307;51.136;14.942;2023-04-06T00:24:38;8.60;;;6.90;;
37445;SDS011;23307;51.136;14.942;2023-04-06T00:27:04;8.60;;;6.47;;
37445;SDS011;23307;51.136;14.942;2023-04-06T00:29:30;9.90;;;6.77;;
37445;SDS011;23307;51.136;14.942;2023-04-06T00:31:55;9.27;;;6.73;;
37445;SDS011;23307;51.136;14.942;2023-04-06T00:34:21;12.60;;;7.17;;
37445;SDS011;23307;51.136;14.942;2023-04-06T00:36:46;8.30;;;6.43;;
37445;SDS011;23307;51.136;14.942;2023-04-06T00:39:11;8.77;;;6.30;;
37445;SDS011;23307;51.136;14.942;2023-04-06T00:41:37;7.90;;;6.00;;
37445;SDS011;23307;51.136;14.942;2023-04-06T00:44:05;8.73;;;6.33;;
37445;SDS011;23307;51.136;14.942;2023-04-06T00:46:30;8.37;;;5.93;;
37445;SDS011;23307;51.136;14.942;2023-04-06T00:48:56;6.93;;;5.50;;
37445;SDS011;23307;51.136;14.942;2023-04-06T00:51:22;9.03;;;6.00;;
37445;SDS011;23307;51.136;14.942;2023-04-06T00:53:47;7.87;;;5.40;;
37445;SDS011;23307;51.136;14.942;2023-04-06T00:56:13;6.83;;;5.20;;
37445;SDS011;23307;51.136;14.942;2023-04-06T00:58:38;7.00;;;5.00;;
37445;SDS011;23307;51.136;14.942;2023-04-06T01:01:05;6.83;;;5.27;;
37445;SDS011;23307;51.136;14.942;2023-04-06T01:03:31;6.10;;;4.77;;
37445;SDS011;23307;51.136;14.942;2023-04-06T01:05:56;6.07;;;5.10;;
37445;SDS011;23307;51.136;14.942;2023-04-06T01:08:23;6.67;;;5.17;;
37445;SDS011;23307;51.136;14.942;2023-04-06T01:10:49;7.20;;;5.73;;
37445;SDS011;23307;51.136;14.942;2023-04-06T01:13:15;7.30;;;5.40;;
37445;SDS011;23307;51.136;14.942;2023-04-06T01:15:40;7.50;;;4.83;;
37445;SDS011;23307;51.136;14.942;2023-04-06T01:18:07;6.17;;;4.90;;
37445;SDS011;23307;51.136;14.942;2023-04-06T01:20:35;6.10;;;4.67;;
37445;SDS011;23307;51.136;14.942;2023-04-06T01:23:00;7.03;;;4.63;;
37445;SDS011;23307;51.136;14.942;2023-04-06T01:25:26;5.63;;;4.40;;
37445;SDS011;23307;51.136;14.942;2023-04-06T01:27:51;6.57;;;4.97;;
37445;SDS011;23307;51.136;14.942;2023-04-06T01:30:17;5.67;;;4.63;;
37445;SDS011;23307;51.136;14.942;2023-04-06T01:32:43;7.37;;;4.20;;
37445;SDS011;23307;51.136;14.942;2023-04-06T01:35:08;5.53;;;4.33;;
37445;SDS011;23307;51.136;14.942;2023-04-06T01:37:34;6.57;;;4.20;;
37445;SDS011;23307;51.136;14.942;2023-04-06T01:40:00;5.07;;;4.30;;
37445;SDS011;23307;51.136;14.942;2023-04-06T01:42:25;6.20;;;3.90;;
37445;SDS011;23307;51.136;14.942;2023-04-06T01:44:51;5.20;;;4.07;;
37445;SDS011;23307;51.136;14.942;2023-04-06T01:47:16;5.83;;;4.47;;
37445;SDS011;23307;51.136;14.942;2023-04-06T01:49:42;7.60;;;5.10;;
37445;SDS011;23307;51.136;14.942;2023-04-06T01:52:07;5.40;;;4.63;;
37445;SDS011;23307;51.136;14.942;2023-04-06T01:54:33;7.70;;;5.47;;
37445;SDS011;23307;51.136;14.942;2023-04-06T01:56:58;6.97;;;5.00;;
37445;SDS011;23307;51.136;14.942;2023-04-06T01:59:24;6.50;;;5.83;;
37445;SDS011;23307;51.136;14.942;2023-04-06T02:01:49;7.67;;;5.83;;
37445;SDS011;23307;51.136;14.942;2023-04-06T02:04:15;7.83;;;6.07;;
37445;SDS011;23307;51.136;14.942;2023-04-06T02:06:40;7.37;;;5.80;;
37445;SDS011;23307;51.136;14.942;2023-04-06T02:09:06;7.77;;;5.90;;
37445;SDS011;23307;51.136;14.942;2023-04-06T02:11:31;7.67;;;5.90;;
37445;SDS011;23307;51.136;14.942;2023-04-06T02:13:57;9.03;;;6.20;;
37445;SDS011;23307;51.136;14.942;2023-04-06T02:16:22;6.60;;;5.50;;
37445;SDS011;23307;51.136;14.942;2023-04-06T02:18:49;7.47;;;6.13;;
37445;SDS011;23307;51.136;14.942;2023-04-06T02:21:15;8.97;;;6.70;;
37445;SDS011;23307;51.136;14.942;2023-04-06T02:23:44;8.23;;;6.30;;
37445;SDS011;23307;51.136;14.942;2023-04-06T02:26:10;10.00;;;6.50;;
37445;SDS011;23307;51.136;14.942;2023-04-06T02:28:36;8.60;;;6.30;;
37445;SDS011;23307;51.136;14.942;2023-04-06T02:31:01;7.60;;;6.57;;
37445;SDS011;23307;51.136;14.942;2023-04-06T02:33:27;8.77;;;6.37;;
37445;SDS011;23307;51.136;14.942;2023-04-06T02:35:52;7.83;;;7.00;;
37445;SDS011;23307;51.136;14.942;2023-04-06T02:38:18;11.33;;;7.63;;
37445;SDS011;23307;51.136;14.942;2023-04-06T02:40:43;7.77;;;6.97;;
37445;SDS011;23307;51.136;14.942;2023-04-06T02:43:08;8.63;;;6.53;;
37445;SDS011;23307;51.136;14.942;2023-04-06T02:45:34;10.53;;;7.37;;
37445;SDS011;23307;51.136;14.942;2023-04-06T02:47:59;10.43;;;7.93;;
37445;SDS011;23307;51.136;14.942;2023-04-06T02:50:25;8.30;;;7.17;;
37445;SDS011;23307;51.136;14.942;2023-04-06T02:52:52;9.20;;;7.67;;
37445;SDS011;23307;51.136;14.942;2023-04-06T02:55:18;9.07;;;7.40;;
37445;SDS011;23307;51.136;14.942;2023-04-06T02:57:44;9.97;;;7.67;;
37445;SDS011;23307;51.136;14.942;2023-04-06T03:00:10;11.40;;;7.80;;
37445;SDS011;23307;51.136;14.942;2023-04-06T03:02:36;11.93;;;8.50;;
37445;SDS011;23307;51.136;14.942;2023-04-06T03:05:02;10.97;;;9.10;;
37445;SDS011;23307;51.136;14.942;2023-04-06T03:07:28;11.93;;;8.60;;
37445;SDS011;23307;51.136;14.942;2023-04-06T03:09:53;10.17;;;8.53;;
37445;SDS011;23307;51.136;14.942;2023-04-06T03:12:19;10.67;;;8.30;;
37445;SDS011;23307;51.136;14.942;2023-04-06T03:14:45;10.83;;;8.93;;
37445;SDS011;23307;51.136;14.942;2023-04-06T03:17:11;12.13;;;8.77;;
37445;SDS011;23307;51.136;14.942;2023-04-06T03:19:36;12.40;;;9.30;;
37445;SDS011;23307;51.136;14.942;2023-04-06T03:22:02;11.57;;;8.80;;
37445;SDS011;23307;51.136;14.942;2023-04-06T03:24:27;12.80;;;8.73;;
37445;SDS011;23307;51.136;14.942;2023-04-06T03:26:53;12.03;;;8.67;;
37445;SDS011;23307;51.136;14.942;2023-04-06T03:29:18;14.27;;;8.73;;
37445;SDS011;23307;51.136;14.942;2023-04-06T03:31:44;11.30;;;8.87;;
37445;SDS011;23307;51.136;14.942;2023-04-06T03:34:10;15.13;;;8.70;;
37445;SDS011;23307;51.136;14.942;2023-04-06T03:36:35;13.90;;;9.20;;
37445;SDS011;23307;51.136;14.942;2023-04-06T03:39:01;10.40;;;8.67;;
37445;SDS011;23307;51.136;14.942;2023-04-06T03:41:26;11.67;;;9.47;;
37445;SDS011;23307;51.136;14.942;2023-04-06T03:43:52;10.80;;;9.00;;
37445;SDS011;23307;51.136;14.942;2023-04-06T03:46:17;10.87;;;8.83;;
37445;SDS011;23307;51.136;14.942;2023-04-06T03:48:43;11.73;;;8.67;;
37445;SDS011;23307;51.136;14.942;2023-04-06T03:51:08;12.97;;;9.27;;
37445;SDS011;23307;51.136;14.942;2023-04-06T03:53:34;13.60;;;11.07;;
37445;SDS011;23307;51.136;14.942;2023-04-06T03:56:01;17.07;;;14.60;;
37445;SDS011;23307;51.136;14.942;2023-04-06T03:58:27;18.00;;;16.10;;
37445;SDS011;23307;51.136;14.942;2023-04-06T04:00:52;14.43;;;11.90;;
37445;SDS011;23307;51.136;14.942;2023-04-06T04:03:18;15.23;;;10.60;;
37445;SDS011;23307;51.136;14.942;2023-04-06T04:05:43;15.57;;;10.20;;
37445;SDS011;23307;51.136;14.942;2023-04-06T04:08:09;13.87;;;12.20;;
37445;SDS011;23307;51.136;14.942;2023-04-06T04:10:34;22.30;;;19.33;;
37445;SDS011;23307;51.136;14.942;2023-04-06T04:13:00;16.07;;;14.47;;
37445;SDS011;23307;51.136;14.942;2023-04-06T04:15:25;16.73;;;12.93;;
37445;SDS011;23307;51.136;14.942;2023-04-06T04:17:51;15.67;;;10.70;;
37445;SDS011;23307;51.136;14.942;2023-04-06T04:20:16;16.80;;;10.80;;
37445;SDS011;23307;51.136;14.942;2023-04-06T04:22:42;15.77;;;9.97;;
37445;SDS011;23307;51.136;14.942;2023-04-06T04:25:08;14.27;;;10.07;;
37445;SDS011;23307;51.136;14.942;2023-04-06T04:27:34;11.70;;;9.70;;
37445;SDS011;23307;51.136;14.942;2023-04-06T04:30:00;17.67;;;10.47;;
37445;SDS011;23307;51.136;14.942;2023-04-06T04:32:25;14.77;;;10.10;;
37445;SDS011;23307;51.136;14.942;2023-04-06T04:34:52;13.90;;;10.70;;
37445;SDS011;23307;51.136;14.942;2023-04-06T04:37:18;15.00;;;11.23;;
37445;SDS011;23307;51.136;14.942;2023-04-06T04:39:44;14.77;;;10.53;;
37445;SDS011;23307;51.136;14.942;2023-04-06T04:42:10;16.93;;;11.23;;
37445;SDS011;23307;51.136;14.942;2023-04-06T04:44:35;16.40;;;10.33;;
37445;SDS011;23307;51.136;14.942;2023-04-06T04:47:01;15.03;;;10.63;;
37445;SDS011;23307;51.136;14.942;2023-04-06T04:49:26;15.83;;;10.67;;
37445;SDS011;23307;51.136;14.942;2023-04-06T04:51:52;15.10;;;11.27;;
37445;SDS011;23307;51.136;14.942;2023-04-06T04:54:18;15.87;;;10.77;;
37445;SDS011;23307;51.136;14.942;2023-04-06T04:56:44;15.03;;;10.60;;
37445;SDS011;23307;51.136;14.942;2023-04-06T04:59:10;16.13;;;11.57;;
37445;SDS011;23307;51.136;14.942;2023-04-06T05:01:35;14.40;;;10.50;;
37445;SDS011;23307;51.136;14.942;2023-04-06T05:04:01;13.77;;;10.60;;
37445;SDS011;23307;51.136;14.942;2023-04-06T05:06:26;13.20;;;9.97;;
37445;SDS011;23307;51.136;14.942;2023-04-06T05:08:52;15.50;;;11.00;;
37445;SDS011;23307;51.136;14.942;2023-04-06T05:11:17;13.60;;;10.33;;
37445;SDS011;23307;51.136;14.942;2023-04-06T05:13:43;14.60;;;11.53;;
37445;SDS011;23307;51.136;14.942;2023-04-06T05:16:08;13.97;;;10.33;;
37445;SDS011;23307;51.136;14.942;2023-04-06T05:18:34;16.47;;;11.30;;
37445;SDS011;23307;51.136;14.942;2023-04-06T05:20:59;12.07;;;10.40;;
37445;SDS011;23307;51.136;14.942;2023-04-06T05:23:25;14.97;;;11.23;;
37445;SDS011;23307;51.136;14.942;2023-04-06T05:25:51;14.00;;;10.63;;
37445;SDS011;23307;51.136;14.942;2023-04-06T05:28:16;13.53;;;11.07;;
37445;SDS011;23307;51.136;14.942;2023-04-06T05:30:43;17.20;;;11.10;;
37445;SDS011;23307;51.136;14.942;2023-04-06T05:33:11;14.37;;;11.57;;
37445;SDS011;23307;51.136;14.942;2023-04-06T05:35:36;16.70;;;12.03;;
37445;SDS011;23307;51.136;14.942;2023-04-06T05:38:02;16.53;;;11.70;;
37445;SDS011;23307;51.136;14.942;2023-04-06T05:40:27;13.60;;;11.23;;
37445;SDS011;23307;51.136;14.942;2023-04-06T05:42:53;16.90;;;12.30;;
37445;SDS011;23307;51.136;14.942;2023-04-06T05:45:19;15.50;;;10.80;;
37445;SDS011;23307;51.136;14.942;2023-04-06T05:47:45;17.77;;;12.90;;
37445;SDS011;23307;51.136;14.942;2023-04-06T05:50:11;14.50;;;11.33;;
37445;SDS011;23307;51.136;14.942;2023-04-06T05:52:39;14.87;;;11.47;;
37445;SDS011;23307;51.136;14.942;2023-04-06T05:55:07;14.70;;;11.13;;
37445;SDS011;23307;51.136;14.942;2023-04-06T05:57:34;18.07;;;12.33;;
37445;SDS011;23307;51.136;14.942;2023-04-06T05:59:59;16.80;;;12.57;;
37445;SDS011;23307;51.136;14.942;2023-04-06T06:02:25;17.73;;;12.77;;
37445;SDS011;23307;51.136;14.942;2023-04-06T06:04:51;17.40;;;12.53;;
37445;SDS011;23307;51.136;14.942;2023-04-06T06:07:16;19.03;;;12.47;;
37445;SDS011;23307;51.136;14.942;2023-04-06T06:09:42;17.93;;;13.33;;
37445;SDS011;23307;51.136;14.942;2023-04-06T06:12:07;16.40;;;11.50;;
37445;SDS011;23307;51.136;14.942;2023-04-06T06:14:32;15.80;;;12.07;;
37445;SDS011;23307;51.136;14.942;2023-04-06T06:16:58;17.67;;;12.00;;
37445;SDS011;23307;51.136;14.942;2023-04-06T06:19:23;16.53;;;11.47;;
37445;SDS011;23307;51.136;14.942;2023-04-06T06:21:49;15.07;;;11.97;;
37445;SDS011;23307;51.136;14.942;2023-04-06T06:24:15;16.67;;;11.70;;
37445;SDS011;23307;51.136;14.942;2023-04-06T06:26:40;17.20;;;11.67;;
37445;SDS011;23307;51.136;14.942;2023-04-06T06:29:06;19.57;;;11.73;;
37445;SDS011;23307;51.136;14.942;2023-04-06T06:31:31;15.70;;;11.63;;
37445;SDS011;23307;51.136;14.942;2023-04-06T06:33:57;15.87;;;12.20;;
37445;SDS011;23307;51.136;14.942;2023-04-06T06:36:22;14.03;;;11.23;;
37445;SDS011;23307;51.136;14.942;2023-04-06T06:38:48;15.57;;;11.07;;
37445;SDS011;23307;51.136;14.942;2023-04-06T06:41:14;14.63;;;11.50;;
37445;SDS011;23307;51.136;14.942;2023-04-06T06:43:39;15.90;;;11.00;;
37445;SDS011;23307;51.136;14.942;2023-04-06T06:46:05;13.03;;;10.27;;
37445;SDS011;23307;51.136;14.942;2023-04-06T06:48:31;12.70;;;10.13;;
37445;SDS011;23307;51.136;14.942;2023-04-06T06:50:56;14.37;;;10.07;;
37445;SDS011;23307;51.136;14.942;2023-04-06T06:53:22;13.33;;;10.70;;
37445;SDS011;23307;51.136;14.942;2023-04-06T06:55:48;15.43;;;10.57;;
37445;SDS011;23307;51.136;14.942;2023-04-06T06:58:14;12.17;;;10.57;;
37445;SDS011;23307;51.136;14.942;2023-04-06T07:00:40;12.77;;;9.93;;
37445;SDS011;23307;51.136;14.942;2023-04-06T07:03:05;12.77;;;9.67;;
37445;SDS011;23307;51.136;14.942;2023-04-06T07:05:31;14.47;;;10.63;;
37445;SDS011;23307;51.136;14.942;2023-04-06T07:07:57;11.57;;;9.90;;
37445;SDS011;23307;51.136;14.942;2023-04-06T07:10:22;13.43;;;9.03;;
37445;SDS011;23307;51.136;14.942;2023-04-06T07:12:48;11.77;;;9.20;;
37445;SDS011;23307;51.136;14.942;2023-04-06T07:15:14;12.00;;;9.10;;
37445;SDS011;23307;51.136;14.942;2023-04-06T07:17:39;9.53;;;7.83;;
37445;SDS011;23307;51.136;14.942;2023-04-06T07:20:10;11.57;;;9.10;;
37445;SDS011;23307;51.136;14.942;2023-04-06T07:22:35;9.03;;;7.70;;
37445;SDS011;23307;51.136;14.942;2023-04-06T07:25:01;10.00;;;7.90;;
37445;SDS011;23307;51.136;14.942;2023-04-06T07:27:26;11.60;;;8.10;;
37445;SDS011;23307;51.136;14.942;2023-04-06T07:29:52;12.13;;;8.07;;
37445;SDS011;23307;51.136;14.942;2023-04-06T07:32:17;10.40;;;7.53;;
37445;SDS011;23307;51.136;14.942;2023-04-06T07:34:43;12.00;;;7.87;;
37445;SDS011;23307;51.136;14.942;2023-04-06T07:37:10;11.10;;;8.43;;
37445;SDS011;23307;51.136;14.942;2023-04-06T07:39:35;9.63;;;7.77;;
37445;SDS011;23307;51.136;14.942;2023-04-06T07:42:01;10.33;;;6.97;;
37445;SDS011;23307;51.136;14.942;2023-04-06T07:44:26;10.67;;;7.20;;
37445;SDS011;23307;51.136;14.942;2023-04-06T07:46:52;11.00;;;7.03;;
37445;SDS011;23307;51.136;14.942;2023-04-06T07:49:17;9.83;;;6.20;;
37445;SDS011;23307;51.136;14.942;2023-04-06T07:51:43;6.00;;;4.57;;
37445;SDS011;23307;51.136;14.942;2023-04-06T07:54:08;6.83;;;5.37;;
37445;SDS011;23307;51.136;14.942;2023-04-06T07:56:34;7.63;;;4.83;;
37445;SDS011;23307;51.136;14.942;2023-04-06T07:58:59;8.07;;;5.17;;
37445;SDS011;23307;51.136;14.942;2023-04-06T08:01:25;6.63;;;4.60;;
37445;SDS011;23307;51.136;14.942;2023-04-06T08:03:52;7.00;;;4.50;;
37445;SDS011;23307;51.136;14.942;2023-04-06T08:06:17;4.30;;;3.03;;
37445;SDS011;23307;51.136;14.942;2023-04-06T08:08:43;7.37;;;3.87;;
37445;SDS011;23307;51.136;14.942;2023-04-06T08:11:08;9.47;;;3.43;;
37445;SDS011;23307;51.136;14.942;2023-04-06T08:13:34;5.57;;;4.10;;
37445;SDS011;23307;51.136;14.942;2023-04-06T08:16:00;4.77;;;3.40;;
37445;SDS011;23307;51.136;14.942;2023-04-06T08:18:26;5.13;;;3.30;;
37445;SDS011;23307;51.136;14.942;2023-04-06T08:20:51;7.30;;;3.20;;
37445;SDS011;23307;51.136;14.942;2023-04-06T08:23:17;7.53;;;3.27;;
37445;SDS011;23307;51.136;14.942;2023-04-06T08:25:42;4.27;;;2.77;;
37445;SDS011;23307;51.136;14.942;2023-04-06T08:28:08;4.77;;;3.13;;
37445;SDS011;23307;51.136;14.942;2023-04-06T08:30:34;3.80;;;3.30;;
37445;SDS011;23307;51.136;14.942;2023-04-06T08:33:00;5.57;;;3.70;;
37445;SDS011;23307;51.136;14.942;2023-04-06T08:35:26;4.33;;;2.97;;
37445;SDS011;23307;51.136;14.942;2023-04-06T08:37:52;5.17;;;3.53;;
37445;SDS011;23307;51.136;14.942;2023-04-06T08:40:17;5.57;;;3.77;;
37445;SDS011;23307;51.136;14.942;2023-04-06T08:42:49;5.90;;;3.70;;
37445;SDS011;23307;51.136;14.942;2023-04-06T08:45:17;5.60;;;3.90;;
37445;SDS011;23307;51.136;14.942;2023-04-06T08:47:46;4.47;;;3.30;;
37445;SDS011;23307;51.136;14.942;2023-04-06T08:50:15;4.43;;;3.30;;
37445;SDS011;23307;51.136;14.942;2023-04-06T08:52:42;4.37;;;3.57;;
37445;SDS011;23307;51.136;14.942;2023-04-06T08:55:09;5.43;;;3.53;;
37445;SDS011;23307;51.136;14.942;2023-04-06T08:57:35;5.93;;;4.20;;
37445;SDS011;23307;51.136;14.942;2023-04-06T09:00:01;6.50;;;4.43;;
37445;SDS011;23307;51.136;14.942;2023-04-06T09:02:27;5.82;;;4.22;;
37445;SDS011;23307;51.136;14.942;2023-04-06T09:04:53;7.63;;;4.38;;
37445;SDS011;23307;51.136;14.942;2023-04-06T09:07:19;5.05;;;3.97;;
37445;SDS011;23307;51.136;14.942;2023-04-06T09:09:45;6.03;;;4.20;;
37445;SDS011;23307;51.136;14.942;2023-04-06T09:12:27;6.47;;;4.82;;
37445;SDS011;23307;51.136;14.942;2023-04-06T09:14:54;7.82;;;4.70;;
37445;SDS011;23307;51.136;14.942;2023-04-06T09:17:24;6.75;;;4.35;;
37445;SDS011;23307;51.136;14.942;2023-04-06T09:19:51;6.93;;;3.83;;
37445;SDS011;23307;51.136;14.942;2023-04-06T09:22:17;5.75;;;3.95;;
37445;SDS011;23307;51.136;14.942;2023-04-06T09:24:47;5.03;;;3.90;;
37445;SDS011;23307;51.136;14.942;2023-04-06T09:27:14;5.72;;;3.90;;
37445;SDS011;23307;51.136;14.942;2023-04-06T09:29:41;8.55;;;4.03;;
37445;SDS011;23307;51.136;14.942;2023-04-06T09:32:08;5.07;;;4.50;;
37445;SDS011;23307;51.136;14.942;2023-04-06T09:34:39;6.97;;;4.38;;
37445;SDS011;23307;51.136;14.942;2023-04-06T09:37:12;4.55;;;3.95;;
37445;SDS011;23307;51.136;14.942;2023-04-06T09:39:40;4.57;;;3.53;;
37445;SDS011;23307;51.136;14.942;2023-04-06T09:42:06;6.25;;;3.95;;
37445;SDS011;23307;51.136;14.942;2023-04-06T09:44:31;6.47;;;3.58;;
37445;SDS011;23307;51.136;14.942;2023-04-06T09:46:57;4.57;;;3.80;;
37445;SDS011;23307;51.136;14.942;2023-04-06T09:49:23;7.30;;;5.30;;
37445;SDS011;23307;51.136;14.942;2023-04-06T09:51:55;5.00;;;4.00;;
37445;SDS011;23307;51.136;14.942;2023-04-06T09:54:24;4.18;;;3.40;;
37445;SDS011;23307;51.136;14.942;2023-04-06T09:57:03;4.53;;;3.47;;
37445;SDS011;23307;51.136;14.942;2023-04-06T10:02:22;3.70;;;3.20;;
37445;SDS011;23307;51.136;14.942;2023-04-06T10:07:46;4.32;;;3.15;;
37445;SDS011;23307;51.136;14.942;2023-04-06T10:10:15;3.72;;;3.20;;
37445;SDS011;23307;51.136;14.942;2023-04-06T10:12:41;6.10;;;3.33;;
37445;SDS011;23307;51.136;14.942;2023-04-06T10:15:09;3.58;;;3.28;;
37445;SDS011;23307;51.136;14.942;2023-04-06T10:17:35;4.50;;;3.35;;
37445;SDS011;23307;51.136;14.942;2023-04-06T10:20:05;5.75;;;3.30;;
37445;SDS011;23307;51.136;14.942;2023-04-06T10:22:38;5.70;;;3.38;;
37445;SDS011;23307;51.136;14.942;2023-04-06T10:25:08;6.07;;;3.72;;
37445;SDS011;23307;51.136;14.942;2023-04-06T10:27:34;4.35;;;3.70;;
37445;SDS011;23307;51.136;14.942;2023-04-06T10:30:03;4.95;;;3.17;;
37445;SDS011;23307;51.136;14.942;2023-04-06T10:32:37;5.07;;;3.50;;
37445;SDS011;23307;51.136;14.942;2023-04-06T10:35:07;5.03;;;3.85;;
37445;SDS011;23307;51.136;14.942;2023-04-06T10:40:32;6.20;;;3.60;;
37445;SDS011;23307;51.136;14.942;2023-04-06T10:45:35;4.65;;;3.70;;
37445;SDS011;23307;51.136;14.942;2023-04-06T10:48:12;5.38;;;3.70;;
37445;SDS011;23307;51.136;14.942;2023-04-06T10:50:46;5.03;;;3.47;;
37445;SDS011;23307;51.136;14.942;2023-04-06T10:53:23;3.97;;;3.42;;
37445;SDS011;23307;51.136;14.942;2023-04-06T10:55:50;4.05;;;3.10;;
37445;SDS011;23307;51.136;14.942;2023-04-06T10:58:16;4.47;;;3.40;;
37445;SDS011;23307;51.136;14.942;2023-04-06T11:00:45;5.20;;;3.60;;
37445;SDS011;23307;51.136;14.942;2023-04-06T11:03:11;4.80;;;3.38;;
37445;SDS011;23307;51.136;14.942;2023-04-06T11:05:37;4.68;;;3.10;;
37445;SDS011;23307;51.136;14.942;2023-04-06T11:08:02;6.25;;;3.30;;
37445;SDS011;23307;51.136;14.942;2023-04-06T11:10:28;3.80;;;3.10;;
37445;SDS011;23307;51.136;14.942;2023-04-06T11:12:55;4.95;;;3.50;;
37445;SDS011;23307;51.136;14.942;2023-04-06T11:15:21;4.53;;;3.35;;
37445;SDS011;23307;51.136;14.942;2023-04-06T11:17:47;3.35;;;3.05;;
37445;SDS011;23307;51.136;14.942;2023-04-06T11:20:14;4.40;;;3.20;;
37445;SDS011;23307;51.136;14.942;2023-04-06T11:22:49;5.85;;;3.50;;
37445;SDS011;23307;51.136;14.942;2023-04-06T11:25:15;4.95;;;3.22;;
37445;SDS011;23307;51.136;14.942;2023-04-06T11:27:41;5.35;;;3.50;;
37445;SDS011;23307;51.136;14.942;2023-04-06T11:30:09;3.58;;;3.28;;
37445;SDS011;23307;51.136;14.942;2023-04-06T11:32:41;4.43;;;3.45;;
37445;SDS011;23307;51.136;14.942;2023-04-06T11:35:12;4.10;;;3.33;;
37445;SDS011;23307;51.136;14.942;2023-04-06T11:37:45;4.88;;;3.10;;
37445;SDS011;23307;51.136;14.942;2023-04-06T11:40:10;3.05;;;2.75;;
37445;SDS011;23307;51.136;14.942;2023-04-06T11:42:36;4.00;;;2.95;;
37445;SDS011;23307;51.136;14.942;2023-04-06T11:45:01;3.85;;;2.80;;
37445;SDS011;23307;51.136;14.942;2023-04-06T11:47:28;4.43;;;2.90;;
37445;SDS011;23307;51.136;14.942;2023-04-06T11:50:07;3.53;;;2.72;;
37445;SDS011;23307;51.136;14.942;2023-04-06T11:52:38;3.47;;;2.70;;
37445;SDS011;23307;51.136;14.942;2023-04-06T11:55:11;5.13;;;3.45;;
37445;SDS011;23307;51.136;14.942;2023-04-06T11:57:39;4.32;;;3.33;;
37445;SDS011;23307;51.136;14.942;2023-04-06T12:00:04;4.68;;;3.08;;
37445;SDS011;23307;51.136;14.942;2023-04-06T12:02:31;4.18;;;3.45;;
37445;SDS011;23307;51.136;14.942;2023-04-06T12:04:57;5.95;;;3.50;;
37445;SDS011;23307;51.136;14.942;2023-04-06T12:07:22;5.05;;;3.00;;
37445;SDS011;23307;51.136;14.942;2023-04-06T12:09:48;4.50;;;3.63;;
37445;SDS011;23307;51.136;14.942;2023-04-06T12:12:13;5.60;;;3.53;;
37445;SDS011;23307;51.136;14.942;2023-04-06T12:14:39;7.55;;;3.72;;
37445;SDS011;23307;51.136;14.942;2023-04-06T12:17:04;3.05;;;2.75;;
37445;SDS011;23307;51.136;14.942;2023-04-06T12:19:30;3.83;;;2.75;;
37445;SDS011;23307;51.136;14.942;2023-04-06T12:21:56;4.75;;;3.38;;
37445;SDS011;23307;51.136;14.942;2023-04-06T12:24:22;4.78;;;3.05;;
37445;SDS011;23307;51.136;14.942;2023-04-06T12:26:48;4.57;;;3.15;;
37445;SDS011;23307;51.136;14.942;2023-04-06T12:29:13;4.90;;;3.08;;
37445;SDS011;23307;51.136;14.942;2023-04-06T12:31:39;4.75;;;3.00;;
37445;SDS011;23307;51.136;14.942;2023-04-06T12:34:09;4.30;;;3.08;;
37445;SDS011;23307;51.136;14.942;2023-04-06T12:36:34;5.28;;;3.00;;
37445;SDS011;23307;51.136;14.942;2023-04-06T12:39:02;3.58;;;2.75;;
37445;SDS011;23307;51.136;14.942;2023-04-06T12:41:27;3.60;;;3.05;;
37445;SDS011;23307;51.136;14.942;2023-04-06T12:43:53;3.65;;;2.90;;
37445;SDS011;23307;51.136;14.942;2023-04-06T12:46:19;3.97;;;3.00;;
37445;SDS011;23307;51.136;14.942;2023-04-06T12:48:44;3.35;;;2.95;;
37445;SDS011;23307;51.136;14.942;2023-04-06T12:51:11;3.45;;;3.13;;
37445;SDS011;23307;51.136;14.942;2023-04-06T12:53:36;3.92;;;2.63;;
37445;SDS011;23307;51.136;14.942;2023-04-06T12:56:02;3.72;;;2.72;;
37445;SDS011;23307;51.136;14.942;2023-04-06T12:58:35;3.72;;;2.78;;
37445;SDS011;23307;51.136;14.942;2023-04-06T13:01:05;4.05;;;2.90;;
37445;SDS011;23307;51.136;14.942;2023-04-06T13:03:31;4.50;;;2.92;;
37445;SDS011;23307;51.136;14.942;2023-04-06T13:05:58;3.28;;;2.65;;
37445;SDS011;23307;51.136;14.942;2023-04-06T13:08:24;3.58;;;2.67;;
37445;SDS011;23307;51.136;14.942;2023-04-06T13:10:51;3.00;;;2.65;;
37445;SDS011;23307;51.136;14.942;2023-04-06T13:13:17;4.70;;;2.63;;
37445;SDS011;23307;51.136;14.942;2023-04-06T13:15:47;3.65;;;2.75;;
37445;SDS011;23307;51.136;14.942;2023-04-06T13:18:12;4.57;;;2.67;;
37445;SDS011;23307;51.136;14.942;2023-04-06T13:20:37;4.43;;;2.75;;
37445;SDS011;23307;51.136;14.942;2023-04-06T13:23:03;5.03;;;2.80;;
37445;SDS011;23307;51.136;14.942;2023-04-06T13:25:29;3.72;;;2.65;;
37445;SDS011;23307;51.136;14.942;2023-04-06T13:27:55;2.88;;;2.58;;
37445;SDS011;23307;51.136;14.942;2023-04-06T13:30:20;3.47;;;2.55;;
37445;SDS011;23307;51.136;14.942;2023-04-06T13:32:46;3.70;;;2.70;;
37445;SDS011;23307;51.136;14.942;2023-04-06T13:35:12;3.65;;;2.80;;
37445;SDS011;23307;51.136;14.942;2023-04-06T13:37:37;3.13;;;2.70;;
37445;SDS011;23307;51.136;14.942;2023-04-06T13:40:03;3.67;;;2.80;;
37445;SDS011;23307;51.136;14.942;2023-04-06T13:42:32;2.80;;;2.60;;
37445;SDS011;23307;51.136;14.942;2023-04-06T13:44:59;3.88;;;2.72;;
37445;SDS011;23307;51.136;14.942;2023-04-06T13:47:25;3.17;;;2.60;;
37445;SDS011;23307;51.136;14.942;2023-04-06T13:49:51;3.92;;;2.60;;
37445;SDS011;23307;51.136;14.942;2023-04-06T13:52:17;3.38;;;2.40;;
37445;SDS011;23307;51.136;14.942;2023-04-06T13:54:43;3.88;;;2.53;;
37445;SDS011;23307;51.136;14.942;2023-04-06T13:57:10;3.83;;;2.78;;
37445;SDS011;23307;51.136;14.942;2023-04-06T13:59:36;2.47;;;2.22;;
37445;SDS011;23307;51.136;14.942;2023-04-06T14:02:02;3.22;;;2.50;;
37445;SDS011;23307;51.136;14.942;2023-04-06T14:04:29;4.13;;;2.63;;
37445;SDS011;23307;51.136;14.942;2023-04-06T14:06:55;3.50;;;2.60;;
37445;SDS011;23307;51.136;14.942;2023-04-06T14:09:21;3.75;;;2.70;;
37445;SDS011;23307;51.136;14.942;2023-04-06T14:11:46;3.53;;;2.67;;
37445;SDS011;23307;51.136;14.942;2023-04-06T14:14:12;5.13;;;3.00;;
37445;SDS011;23307;51.136;14.942;2023-04-06T14:16:38;3.25;;;2.65;;
37445;SDS011;23307;51.136;14.942;2023-04-06T14:19:03;4.65;;;2.90;;
37445;SDS011;23307;51.136;14.942;2023-04-06T14:21:29;2.83;;;2.53;;
37445;SDS011;23307;51.136;14.942;2023-04-06T14:23:54;4.30;;;2.83;;
37445;SDS011;23307;51.136;14.942;2023-04-06T14:26:20;3.50;;;2.70;;
37445;SDS011;23307;51.136;14.942;2023-04-06T14:28:46;3.53;;;2.72;;
37445;SDS011;23307;51.136;14.942;2023-04-06T14:31:12;4.05;;;2.60;;
37445;SDS011;23307;51.136;14.942;2023-04-06T14:33:40;3.22;;;2.58;;